Time;durP1;ratioP1;P1;durP2;ratioP2;P2;SDS_P1;SDS_P2;PMS_P1;PMS_P2;Temp;Humidity;BMP_temperature;BMP_pressure;BME280_temperature;BME280_humidity;BME280_pressure;Samples;Min_cycle;Max_cycle;Signal;HPM_P1;HPM_P2
2022/06/11 00:03:34;;;;;;;;;;;;;;;13.48;87.77;99924.03;7879846;30;20025;-72
2022/06/11 00:07:35;;;;;;;;;;;;;;;13.45;87.73;99921.41;7849346;30;19937;-72
2022/06/11 00:11:37;;;;;;;;;;;;;;;13.47;88.65;99921.44;7869446;30;19934;-72
2022/06/11 00:15:39;;;;;;;;;;;;;;;13.55;89.53;99917.88;7865488;30;19930;-72
2022/06/11 00:19:41;;;;;;;;;;;;;;;13.60;89.75;99923.91;7884531;30;19965;-72
2022/06/11 00:23:43;;;;;;;;;;;;;;;13.67;89.51;99918.66;7869437;30;19977;-72
2022/06/11 00:27:45;;;;;;;;;;;;;;;13.75;89.35;99919.44;7871418;30;19940;-72
2022/06/11 00:31:46;;;;;;;;;;;;;;;13.78;89.18;99908.97;7866778;30;20547;-72
2022/06/11 00:35:48;;;;;;;;;;;;;;;13.79;88.97;99915.94;7867011;30;19939;-72
2022/06/11 00:39:49;;;;;;;;;;;;;;;13.79;88.70;99910.72;7882557;30;19940;-72
2022/06/11 00:43:52;;;;;;;;;;;;;;;13.76;89.24;99902.91;7866100;30;19929;-72
2022/06/11 00:48:06;;;;;;;;;;;;;;;13.76;89.07;99906.38;7867958;30;19934;-72
2022/06/11 00:52:24;;;;;;;;;;;;;;;13.72;88.98;99909.91;7868617;30;19941;-72
2022/06/11 00:56:28;;;;;;;;;;;;;;;13.71;89.16;99910.78;7866340;30;19930;-72
2022/06/11 01:00:35;;;;;;;;;;;;;;;13.61;89.27;99909.13;7866542;30;20359;-72
2022/06/11 01:04:57;;;;;;;;;;;;;;;13.61;88.83;99896.06;7871065;30;20538;-72
2022/06/11 01:09:09;;;;;;;;;;;;;;;13.62;89.73;99900.41;7861130;30;20017;-72
2022/06/11 01:13:32;;;;;;;;;;;;;;;13.64;89.62;99901.25;7868616;30;19973;-72
2022/06/11 01:17:36;;;;;;;;;;;;;;;13.61;89.83;99894.34;7859681;30;20468;-72
2022/06/11 01:22:10;;;;;;;;;;;;;;;13.61;89.89;99891.72;7867148;30;20319;-72
2022/06/11 01:26:21;;;;;;;;;;;;;;;13.54;89.38;99890.06;7870868;30;19929;-72
2022/06/11 01:30:22;;;;;;;;;;;;;;;13.46;89.85;99894.44;7866687;30;20374;-72
2022/06/11 01:34:27;;;;;;;;;;;;;;;13.46;90.51;99894.44;7865893;30;20036;-72
2022/06/11 01:38:38;;;;;;;;;;;;;;;13.44;89.91;99895.34;7859225;30;19929;-72
2022/06/11 01:42:44;;;;;;;;;;;;;;;13.34;89.88;99894.56;7861670;30;19986;-73
2022/06/11 01:46:48;;;;;;;;;;;;;;;13.36;90.17;99894.56;7866184;30;19976;-72
2022/06/11 01:50:52;;;;;;;;;;;;;;;13.35;91.30;99896.31;7867006;30;20020;-72
2022/06/11 01:54:53;;;;;;;;;;;;;;;13.32;91.23;99893.72;7864643;30;19976;-72
2022/06/11 01:58:58;;;;;;;;;;;;;;;13.32;91.34;99892.84;7865373;30;20609;-72
2022/06/11 02:03:03;;;;;;;;;;;;;;;13.34;91.11;99889.34;7869116;30;19969;-72
2022/06/11 02:07:23;;;;;;;;;;;;;;;13.30;90.74;99890.25;7872923;30;19965;-72
2022/06/11 02:11:30;;;;;;;;;;;;;;;13.30;90.94;99901.56;7871954;30;19963;-73
2022/06/11 02:15:33;;;;;;;;;;;;;;;13.33;91.11;99900.66;7862095;30;19940;-72
2022/06/11 02:19:37;;;;;;;;;;;;;;;13.32;91.14;99903.28;7869633;30;20423;-72
2022/06/11 02:23:41;;;;;;;;;;;;;;;13.27;90.90;99900.69;7850504;30;19980;-72
2022/06/11 02:27:44;;;;;;;;;;;;;;;13.28;91.01;99902.41;7876440;30;19930;-72
2022/06/11 02:31:48;;;;;;;;;;;;;;;13.28;90.91;99897.19;7875714;30;19936;-72
2022/06/11 02:35:49;;;;;;;;;;;;;;;13.26;90.79;99902.44;7874031;30;19929;-72
2022/06/11 02:39:52;;;;;;;;;;;;;;;13.25;91.14;99899.84;7876012;30;19930;-72
2022/06/11 02:43:54;;;;;;;;;;;;;;;13.18;91.13;99906.00;7870716;30;19976;-72
2022/06/11 02:47:55;;;;;;;;;;;;;;;13.11;90.51;99907.75;7872175;30;20364;-72
2022/06/11 02:51:59;;;;;;;;;;;;;;;13.07;90.97;99906.00;7872306;30;19973;-72
2022/06/11 02:56:00;;;;;;;;;;;;;;;13.04;90.60;99913.84;7877484;30;20411;-72
2022/06/11 03:00:04;;;;;;;;;;;;;;;13.02;91.10;99918.22;7876487;30;19929;-72
2022/06/11 03:04:05;;;;;;;;;;;;;;;12.88;91.07;99918.28;7872168;30;21265;-72
2022/06/11 03:08:08;;;;;;;;;;;;;;;12.81;91.04;99920.94;7870611;30;19929;-72
2022/06/11 03:12:11;;;;;;;;;;;;;;;12.79;91.69;99925.31;7866535;30;19930;-72
2022/06/11 03:16:13;;;;;;;;;;;;;;;12.79;91.64;99922.69;7871424;30;20228;-72
2022/06/11 03:20:15;;;;;;;;;;;;;;;12.78;91.49;99919.22;7868114;30;20126;-72
2022/06/11 03:24:17;;;;;;;;;;;;;;;12.70;91.93;99919.25;7862334;30;19981;-72
2022/06/11 03:28:20;;;;;;;;;;;;;;;12.68;91.22;99921.00;7866097;30;20025;-72
2022/06/11 03:32:21;;;;;;;;;;;;;;;12.64;91.17;99929.69;7870599;30;19930;-73
2022/06/11 03:36:23;;;;;;;;;;;;;;;12.63;91.13;99927.09;7868070;30;20237;-73
2022/06/11 03:40:24;;;;;;;;;;;;;;;12.59;91.26;99926.25;7870175;30;19960;-73
2022/06/11 03:44:26;;;;;;;;;;;;;;;12.58;91.80;99931.47;7866872;30;19969;-73
2022/06/11 03:48:28;;;;;;;;;;;;;;;12.54;92.03;99932.34;7860220;30;20328;-72
2022/06/11 03:52:30;;;;;;;;;;;;;;;12.59;92.87;99934.06;7865042;30;19930;-73
2022/06/11 03:56:32;;;;;;;;;;;;;;;12.69;92.52;99940.09;7866849;30;19980;-73
2022/06/11 04:04:54;;;;;;;;;;;;;;;12.74;92.58;99950.50;7869190;30;20470;-73
2022/06/11 04:08:58;;;;;;;;;;;;;;;12.83;92.63;99937.44;7862566;30;19952;-73
2022/06/11 04:13:00;;;;;;;;;;;;;;;12.88;92.83;99946.09;7873576;30;19967;-73
2022/06/11 04:17:10;;;;;;;;;;;;;;;12.95;92.90;99948.69;7879900;30;20050;-73
2022/06/11 04:21:12;;;;;;;;;;;;;;;13.09;92.85;99956.41;7871340;30;19976;-73
2022/06/11 04:25:15;;;;;;;;;;;;;;;13.20;92.67;99946.81;7865078;30;19937;-73
2022/06/11 04:29:18;;;;;;;;;;;;;;;13.28;92.12;99951.97;7865995;30;20339;-73
2022/06/11 04:33:20;;;;;;;;;;;;;;;13.33;91.66;99950.22;7869612;30;19929;-73
2022/06/11 04:37:24;;;;;;;;;;;;;;;13.44;91.01;99947.53;7862610;30;19984;-73
2022/06/11 04:41:26;;;;;;;;;;;;;;;13.54;90.58;99952.69;7855455;30;20013;-73
2022/06/11 04:45:28;;;;;;;;;;;;;;;13.63;90.61;99956.94;7860022;30;19930;-73
2022/06/11 04:49:29;;;;;;;;;;;;;;;13.75;89.74;99964.69;7866208;30;20016;-73
2022/06/11 04:53:30;;;;;;;;;;;;;;;13.88;89.68;99960.25;7868565;30;19929;-74
2022/06/11 04:57:32;;;;;;;;;;;;;;;14.08;88.70;99966.13;7858457;30;19972;-74
2022/06/11 05:01:34;;;;;;;;;;;;;;;14.25;88.45;99968.59;7841656;30;20024;-74
2022/06/11 05:05:36;;;;;;;;;;;;;;;14.46;87.78;99963.16;7867411;30;19991;-75
2022/06/11 05:09:38;;;;;;;;;;;;;;;14.69;87.20;99967.25;7860407;30;19936;-74
2022/06/11 05:13:40;;;;;;;;;;;;;;;14.90;86.12;99963.50;7859250;30;20714;-74
2022/06/11 05:17:42;;;;;;;;;;;;;;;15.13;85.14;99960.63;7860425;30;19926;-75
2022/06/11 05:21:44;;;;;;;;;;;;;;;15.41;84.63;99961.94;7861611;30;19969;-75
2022/06/11 05:25:46;;;;;;;;;;;;;;;15.68;83.24;99964.16;7865337;30;19934;-75
2022/06/11 05:29:52;;;;;;;;;;;;;;;16.00;82.25;99966.25;7869265;30;20341;-76
2022/06/11 05:33:53;;;;;;;;;;;;;;;16.37;80.63;99972.59;7866442;30;19941;-74
2022/06/11 05:37:56;;;;;;;;;;;;;;;16.84;77.88;99975.16;7862517;30;19937;-75
2022/06/11 05:41:58;;;;;;;;;;;;;;;17.24;75.69;99976.97;7883941;29;19929;-76
2022/06/11 05:46:01;;;;;;;;;;;;;;;17.84;73.92;99973.84;7866796;30;19941;-76
2022/06/11 05:50:04;;;;;;;;;;;;;;;18.45;72.25;99969.59;7863075;30;19984;-76
2022/06/11 05:54:08;;;;;;;;;;;;;;;18.95;69.70;99970.84;7860299;30;19984;-76
2022/06/11 05:58:11;;;;;;;;;;;;;;;19.51;68.50;99965.59;7866937;30;19957;-76
2022/06/11 06:02:15;;;;;;;;;;;;;;;19.99;66.13;99954.41;7863621;30;20044;-76
2022/06/11 06:06:16;;;;;;;;;;;;;;;20.41;64.20;99967.06;7868643;30;19965;-76
2022/06/11 06:10:18;;;;;;;;;;;;;;;20.87;62.77;99966.25;7885693;29;19930;-76
2022/06/11 06:14:20;;;;;;;;;;;;;;;20.78;63.18;99970.09;7874704;30;19932;-76
2022/06/11 06:18:21;;;;;;;;;;;;;;;20.59;62.36;99970.81;7851927;30;19977;-75
2022/06/11 06:22:22;;;;;;;;;;;;;;;20.28;63.41;99974.50;7873772;30;19929;-75
2022/06/11 06:26:24;;;;;;;;;;;;;;;20.02;62.61;99962.22;7877592;30;19950;-75
2022/06/11 06:30:25;;;;;;;;;;;;;;;19.80;62.77;99969.13;7872096;30;19930;-75
2022/06/11 06:34:27;;;;;;;;;;;;;;;19.93;63.56;99973.09;7873808;30;19945;-75
2022/06/11 06:38:28;;;;;;;;;;;;;;;19.98;63.77;99967.66;7865848;30;19962;-75
2022/06/11 06:42:30;;;;;;;;;;;;;;;20.19;63.62;99972.19;7867436;30;19937;-75
2022/06/11 06:46:31;;;;;;;;;;;;;;;20.26;63.37;99967.56;7873279;30;20392;-75
2022/06/11 06:50:33;;;;;;;;;;;;;;;20.32;63.38;99968.22;7867105;30;19929;-75
2022/06/11 06:54:35;;;;;;;;;;;;;;;20.99;60.47;99972.84;7868435;30;19944;-76
2022/06/11 06:58:37;;;;;;;;;;;;;;;21.80;58.36;99974.97;7876650;30;19934;-76
2022/06/11 07:02:38;;;;;;;;;;;;;;;22.27;56.98;99970.38;7869069;30;19966;-76
2022/06/11 07:06:40;;;;;;;;;;;;;;;22.89;56.20;99970.25;7866854;30;19941;-76
2022/06/11 07:10:50;;;;;;;;;;;;;;;23.15;54.11;99965.53;7863824;30;20495;-76
2022/06/11 07:14:51;;;;;;;;;;;;;;;23.43;53.18;99962.44;7869097;30;19937;-76
2022/06/11 07:18:55;;;;;;;;;;;;;;;23.68;52.02;99968.28;7866820;30;19939;-76
2022/06/11 07:23:09;;;;;;;;;;;;;;;24.07;51.37;99970.78;7862732;30;20025;-77
2022/06/11 07:27:13;;;;;;;;;;;;;;;24.28;49.19;99976.78;7871053;30;19941;-75
2022/06/11 07:31:17;;;;;;;;;;;;;;;24.41;49.66;99983.19;7867817;30;19934;-75
2022/06/11 07:35:19;;;;;;;;;;;;;;;24.71;49.50;99969.25;7845041;30;19930;-75
2022/06/11 07:39:21;;;;;;;;;;;;;;;24.99;47.48;99973.94;7861939;30;19934;-75
2022/06/11 07:43:23;;;;;;;;;;;;;;;25.19;46.68;99967.56;7863832;30;20545;-76
2022/06/11 07:51:47;;;;;;;;;;;;;;;25.61;43.98;99964.28;7859639;30;20124;-76
2022/06/11 07:55:50;;;;;;;;;;;;;;;25.90;44.74;99966.16;7855824;30;19930;-75
2022/06/11 07:59:52;;;;;;;;;;;;;;;26.12;43.54;99965.75;7842210;30;19930;-77
2022/06/11 08:03:54;;;;;;;;;;;;;;;26.36;42.13;99963.47;7855899;30;19940;-77
2022/06/11 08:07:56;;;;;;;;;;;;;;;26.46;40.55;99956.63;7860477;30;19929;-75
2022/06/11 08:11:58;;;;;;;;;;;;;;;26.56;42.24;99961.38;7880244;29;19930;-77
2022/06/11 08:16:00;;;;;;;;;;;;;;;26.75;40.65;99953.97;7859968;30;19938;-77
2022/06/11 08:20:02;;;;;;;;;;;;;;;26.83;39.71;99958.84;7859176;30;19930;-76
2022/06/11 08:24:04;;;;;;;;;;;;;;;26.91;39.08;99959.19;7860865;30;19930;-76
2022/06/11 08:28:06;;;;;;;;;;;;;;;26.93;39.11;99957.28;7860634;30;20603;-73
2022/06/11 08:32:07;;;;;;;;;;;;;;;27.10;38.76;99960.63;7862265;30;19944;-73
2022/06/11 08:36:09;;;;;;;;;;;;;;;27.04;38.00;99966.38;7863939;30;19929;-73
2022/06/11 08:40:21;;;;;;;;;;;;;;;27.37;38.20;99959.84;7856533;30;19934;-74
2022/06/11 08:44:22;;;;;;;;;;;;;;;27.65;38.41;99967.81;7857850;30;19930;-73
2022/06/11 08:48:36;;;;;;;;;;;;;;;27.59;36.68;99962.81;7859897;30;19941;-73
2022/06/11 08:52:37;;;;;;;;;;;;;;;27.69;38.31;99952.44;7858053;30;19965;-72
2022/06/11 08:56:54;;;;;;;;;;;;;;;28.07;37.39;99957.03;7855941;30;19929;-72
2022/06/11 09:00:59;;;;;;;;;;;;;;;27.79;37.11;99950.84;7866595;30;19936;-72
2022/06/11 09:05:21;;;;;;;;;;;;;;;27.65;36.73;99950.94;7862590;30;19929;-72
2022/06/11 09:09:30;;;;;;;;;;;;;;;27.96;36.74;99953.25;7862677;30;19965;-72
2022/06/11 09:13:34;;;;;;;;;;;;;;;27.90;35.94;99951.00;7857593;30;20028;-72
2022/06/11 09:17:45;;;;;;;;;;;;;;;28.13;36.51;99948.59;7849386;30;20021;-72
2022/06/11 09:22:07;;;;;;;;;;;;;;;28.07;35.97;99949.88;7852228;30;19973;-72
2022/06/11 09:26:31;;;;;;;;;;;;;;;28.48;36.36;99951.53;7858148;30;20494;-72
2022/06/11 09:30:43;;;;;;;;;;;;;;;28.56;36.64;99947.38;7858969;30;20086;-72
2022/06/11 09:34:49;;;;;;;;;;;;;;;28.93;34.97;99950.16;7858586;30;20081;-72
2022/06/11 09:39:00;;;;;;;;;;;;;;;29.12;33.82;99947.03;7862657;30;20674;-72
2022/06/11 09:43:07;;;;;;;;;;;;;;;29.12;33.78;99945.19;7857632;30;19930;-72
2022/06/11 09:47:24;;;;;;;;;;;;;;;28.43;34.54;99943.84;7869930;30;20002;-72
2022/06/11 09:51:46;;;;;;;;;;;;;;;28.69;34.29;99939.34;7870119;30;19983;-72
2022/06/11 09:56:00;;;;;;;;;;;;;;;28.51;34.70;99943.31;7868922;30;20600;-72
2022/06/11 10:00:13;;;;;;;;;;;;;;;28.84;36.01;99951.63;7848254;30;19934;-72
2022/06/11 10:04:16;;;;;;;;;;;;;;;28.65;34.65;99942.34;7853017;30;20013;-72
2022/06/11 10:08:23;;;;;;;;;;;;;;;28.07;34.00;99949.00;7870056;30;20297;-72
2022/06/11 10:12:31;;;;;;;;;;;;;;;28.20;35.92;99944.56;7863062;30;19950;-72
2022/06/11 10:16:35;;;;;;;;;;;;;;;28.53;36.34;99950.25;7867992;30;19930;-72
2022/06/11 10:20:39;;;;;;;;;;;;;;;28.90;34.24;99950.34;7854359;30;19940;-72
2022/06/11 10:24:44;;;;;;;;;;;;;;;29.12;34.97;99941.69;7852769;30;19934;-72
2022/06/11 10:28:47;;;;;;;;;;;;;;;29.34;34.17;99952.50;7863316;30;19930;-72
2022/06/11 10:32:51;;;;;;;;;;;;;;;29.52;35.17;99936.97;7869263;30;20374;-73
2022/06/11 10:37:13;;;;;;;;;;;;;;;29.65;33.32;99934.22;7864649;30;20012;-73
2022/06/11 10:41:24;;;;;;;;;;;;;;;29.60;33.22;99945.25;7875879;30;19930;-72
2022/06/11 10:45:27;;;;;;;;;;;;;;;29.31;34.69;99933.16;7877446;30;19940;-72
2022/06/11 10:49:28;;;;;;;;;;;;;;;28.95;33.03;99937.53;7884206;30;19973;-72
2022/06/11 10:53:43;;;;;;;;;;;;;;;28.87;33.36;99924.69;7869727;30;19930;-73
2022/06/11 10:57:50;;;;;;;;;;;;;;;29.11;34.01;99921.25;7869219;30;20022;-73
2022/06/11 11:01:56;;;;;;;;;;;;;;;29.01;34.78;99923.72;7866641;30;20403;-73
2022/06/11 11:06:05;;;;;;;;;;;;;;;29.23;34.51;99917.66;7865848;30;20521;-73
2022/06/11 11:10:17;;;;;;;;;;;;;;;28.74;33.25;99923.84;7859050;30;19958;-72
2022/06/11 11:14:26;;;;;;;;;;;;;;;28.41;35.05;99918.22;7866675;30;20433;-72
2022/06/11 11:18:32;;;;;;;;;;;;;;;28.95;35.15;99915.28;7871154;30;20448;-72
2022/06/11 11:22:34;;;;;;;;;;;;;;;29.35;35.06;99916.75;7869677;30;19930;-73
2022/06/11 11:26:46;;;;;;;;;;;;;;;29.57;33.60;99915.19;7881738;30;20013;-72
2022/06/11 11:30:55;;;;;;;;;;;;;;;29.18;34.63;99909.97;7876656;30;20013;-72
2022/06/11 11:34:57;;;;;;;;;;;;;;;29.25;34.42;99910.38;7853731;30;20003;-72
2022/06/11 11:39:00;;;;;;;;;;;;;;;29.30;33.23;99904.69;7828548;30;19980;-72
2022/06/11 11:43:08;;;;;;;;;;;;;;;29.08;33.96;99908.91;7843854;30;20048;-72
2022/06/11 11:47:18;;;;;;;;;;;;;;;29.43;33.48;99905.47;7860514;30;20264;-72
2022/06/11 11:51:19;;;;;;;;;;;;;;;29.90;31.53;99901.94;7862046;30;20601;-72
2022/06/11 11:55:26;;;;;;;;;;;;;;;30.02;33.16;99894.81;7846584;30;20048;-72
2022/06/11 11:59:46;;;;;;;;;;;;;;;30.07;32.89;99889.97;7846065;30;19930;-72
2022/06/11 12:04:18;;;;;;;;;;;;;;;30.11;33.66;99895.94;7849129;30;20433;-73
2022/06/11 12:08:32;;;;;;;;;;;;;;;30.25;32.75;99896.56;7851272;30;20471;-72
2022/06/11 12:12:34;;;;;;;;;;;;;;;30.44;32.53;99887.09;7847873;30;19978;-73
2022/06/11 12:16:39;;;;;;;;;;;;;;;30.54;33.21;99880.91;7848181;30;20009;-73
2022/06/11 12:20:54;;;;;;;;;;;;;;;30.54;32.65;99878.22;7862325;30;19937;-74
2022/06/11 12:24:55;;;;;;;;;;;;;;;30.09;33.23;99880.00;7846312;30;19942;-74
2022/06/11 12:28:57;;;;;;;;;;;;;;;30.00;33.37;99878.00;7853323;30;19974;-75
2022/06/11 12:32:59;;;;;;;;;;;;;;;29.45;33.92;99877.69;7850876;30;19976;-74
2022/06/11 12:37:03;;;;;;;;;;;;;;;29.35;33.42;99867.75;7856093;30;19973;-73
2022/06/11 12:41:24;;;;;;;;;;;;;;;29.68;34.58;99859.91;7857991;30;20028;-74
2022/06/11 12:45:38;;;;;;;;;;;;;;;29.72;33.67;99863.19;7878093;30;19936;-74
2022/06/11 12:49:50;;;;;;;;;;;;;;;29.95;32.69;99864.94;7862246;30;19941;-74
2022/06/11 12:54:30;;;;;;;;;;;;;;;30.25;33.25;99856.38;7874166;30;19973;-74
2022/06/11 12:58:41;;;;;;;;;;;;;;;30.50;31.58;99865.16;7868609;30;19929;-74
2022/06/11 13:02:46;;;;;;;;;;;;;;;30.44;31.57;99866.50;7868322;29;19988;-72
2022/06/11 13:06:55;;;;;;;;;;;;;;;30.47;31.81;99860.03;7853990;30;20741;-74
2022/06/11 13:11:15;;;;;;;;;;;;;;;30.60;31.06;99864.31;7861434;30;19930;-74
2022/06/11 13:15:17;;;;;;;;;;;;;;;30.52;31.04;99863.19;7852653;30;19961;-74
2022/06/11 13:19:27;;;;;;;;;;;;;;;30.47;30.77;99854.69;7864079;30;20717;-73
2022/06/11 13:23:29;;;;;;;;;;;;;;;30.54;30.80;99863.97;7853830;30;19934;-73
2022/06/11 13:27:50;;;;;;;;;;;;;;;30.59;30.57;99857.25;7855757;30;19930;-74
2022/06/11 13:32:00;;;;;;;;;;;;;;;30.35;31.00;99857.38;7855098;30;20070;-74
2022/06/11 13:36:02;;;;;;;;;;;;;;;30.54;31.70;99851.41;7854028;30;19934;-74
2022/06/11 13:40:08;;;;;;;;;;;;;;;30.55;30.94;99850.44;7862941;30;20320;-74
2022/06/11 13:44:22;;;;;;;;;;;;;;;30.58;30.52;99843.97;7852496;30;20395;-74
2022/06/11 13:48:27;;;;;;;;;;;;;;;30.66;30.90;99855.81;7851877;30;20278;-74
2022/06/11 13:57:22;;;;;;;;;;;;;;;30.43;29.54;99839.81;7858141;30;19996;-74
2022/06/11 14:01:36;;;;;;;;;;;;;;;30.31;29.20;99833.59;7857172;30;20663;-74
2022/06/11 14:05:40;;;;;;;;;;;;;;;30.43;31.63;99835.31;7863701;30;19930;-74
2022/06/11 14:14:22;;;;;;;;;;;;;;;30.60;30.59;99824.09;7863113;30;19930;-74
2022/06/11 14:18:29;;;;;;;;;;;;;;;30.59;31.25;99826.91;7840266;30;19929;-74
2022/06/11 14:22:44;;;;;;;;;;;;;;;30.57;31.04;99824.34;7861940;30;19950;-73
2022/06/11 14:26:48;;;;;;;;;;;;;;;30.49;31.51;99818.75;7866465;30;19934;-74
2022/06/11 14:31:02;;;;;;;;;;;;;;;30.44;30.07;99826.31;7860631;30;19937;-74
2022/06/11 14:35:23;;;;;;;;;;;;;;;30.33;30.95;99816.44;7860458;30;20058;-74
2022/06/11 14:39:30;;;;;;;;;;;;;;;30.31;31.21;99826.41;7863726;30;19930;-74
2022/06/11 14:43:57;;;;;;;;;;;;;;;30.35;30.53;99819.88;7858354;30;19930;-73
2022/06/11 14:47:59;;;;;;;;;;;;;;;30.49;31.78;99808.03;7869672;30;19937;-73
2022/06/11 14:52:04;;;;;;;;;;;;;;;30.30;30.40;99808.63;7868872;30;19929;-73
2022/06/11 14:56:11;;;;;;;;;;;;;;;29.58;31.09;99815.19;7880477;30;20011;-73
2022/06/11 15:00:19;;;;;;;;;;;;;;;29.05;32.49;99801.31;7870477;30;20312;-74
2022/06/11 15:04:39;;;;;;;;;;;;;;;29.44;34.07;99801.03;7865322;30;19965;-73
2022/06/11 15:08:59;;;;;;;;;;;;;;;29.95;33.65;99808.69;7868023;30;19958;-73
2022/06/11 15:13:19;;;;;;;;;;;;;;;30.14;32.04;99807.28;7866419;30;20024;-73
2022/06/11 15:17:31;;;;;;;;;;;;;;;30.37;32.71;99798.31;7857683;30;20038;-74
2022/06/11 15:21:33;;;;;;;;;;;;;;;30.26;31.92;99800.97;7870685;30;20032;-74
2022/06/11 15:25:34;;;;;;;;;;;;;;;30.06;30.78;99798.03;7868784;30;20344;-73
2022/06/11 15:29:35;;;;;;;;;;;;;;;30.34;31.86;99798.53;7866809;30;19941;-73
2022/06/11 15:33:38;;;;;;;;;;;;;;;30.17;31.86;99799.03;7857336;30;19930;-73
2022/06/11 15:37:42;;;;;;;;;;;;;;;30.03;31.95;99808.97;7860318;30;19944;-73
2022/06/11 15:41:45;;;;;;;;;;;;;;;29.91;33.16;99801.03;7880331;30;20466;-73
2022/06/11 15:46:12;;;;;;;;;;;;;;;29.71;32.45;99790.06;7853135;30;20311;-73
2022/06/11 15:50:18;;;;;;;;;;;;;;;29.69;32.97;99792.00;7856772;30;19965;-73
2022/06/11 15:58:39;;;;;;;;;;;;;;;29.17;35.64;99785.22;7854851;30;20032;-72
2022/06/11 16:02:40;;;;;;;;;;;;;;;29.04;35.13;99779.06;7866506;30;19930;-72
2022/06/11 16:06:53;;;;;;;;;;;;;;;28.81;36.34;99786.09;7867182;30;20041;-73
2022/06/11 16:11:09;;;;;;;;;;;;;;;28.08;36.25;99785.19;7860782;30;20372;-72
2022/06/11 16:15:17;;;;;;;;;;;;;;;27.82;38.62;99781.63;7857282;30;20379;-73
2022/06/11 16:19:21;;;;;;;;;;;;;;;28.08;38.28;99780.69;7853242;30;20340;-73
2022/06/11 16:23:24;;;;;;;;;;;;;;;28.02;37.00;99783.81;7862910;30;19941;-72
2022/06/11 16:27:29;;;;;;;;;;;;;;;27.99;39.33;99776.84;7863918;30;19929;-72
2022/06/11 16:31:31;;;;;;;;;;;;;;;28.03;35.63;99769.50;7860965;30;19930;-73
2022/06/11 16:35:38;;;;;;;;;;;;;;;28.16;34.48;99772.13;7860430;30;19941;-73
2022/06/11 16:39:40;;;;;;;;;;;;;;;28.25;35.40;99768.81;7859441;30;19941;-73
2022/06/11 16:43:48;;;;;;;;;;;;;;;27.94;37.85;99765.63;7850331;30;19930;-73
2022/06/11 16:48:04;;;;;;;;;;;;;;;27.71;36.99;99768.19;7850849;30;20755;-72
2022/06/11 16:56:39;;;;;;;;;;;;;;;27.07;37.61;99763.56;7848144;30;19929;-72
2022/06/11 17:00:43;;;;;;;;;;;;;;;26.84;38.88;99758.00;7854854;30;19941;-72
2022/06/11 17:04:55;;;;;;;;;;;;;;;26.66;38.91;99762.72;7836768;30;19944;-72
2022/06/11 17:08:57;;;;;;;;;;;;;;;26.54;41.00;99761.69;7869007;30;19952;-72
2022/06/11 17:13:00;;;;;;;;;;;;;;;26.36;40.28;99763.72;7865042;30;20026;-72
2022/06/11 17:17:03;;;;;;;;;;;;;;;26.25;41.75;99763.53;7852239;30;20423;-72
2022/06/11 17:21:06;;;;;;;;;;;;;;;26.02;42.26;99769.44;7855535;30;20340;-72
2022/06/11 17:25:09;;;;;;;;;;;;;;;25.82;42.87;99766.19;7855086;30;19944;-72
2022/06/11 17:29:13;;;;;;;;;;;;;;;25.61;43.32;99765.66;7863582;30;20595;-72
2022/06/11 17:33:15;;;;;;;;;;;;;;;25.39;44.60;99761.72;7858163;30;19929;-72
2022/06/11 17:37:21;;;;;;;;;;;;;;;25.17;46.87;99770.97;7860486;30;20411;-72
2022/06/11 17:41:22;;;;;;;;;;;;;;;24.83;48.69;99768.50;7867099;30;19954;-72
2022/06/11 17:45:26;;;;;;;;;;;;;;;24.61;49.54;99771.53;7862838;30;19961;-73
2022/06/11 17:49:28;;;;;;;;;;;;;;;24.47;50.09;99758.16;7862795;30;19970;-74
2022/06/11 17:53:31;;;;;;;;;;;;;;;24.19;50.93;99766.72;7860385;30;20294;-73
2022/06/11 17:57:32;;;;;;;;;;;;;;;23.92;51.56;99769.09;7865072;30;19930;-73
2022/06/11 18:01:35;;;;;;;;;;;;;;;23.73;53.85;99775.38;7868356;30;19972;-73
2022/06/11 18:05:38;;;;;;;;;;;;;;;23.63;54.34;99768.81;7864545;30;20024;-73
2022/06/11 18:09:41;;;;;;;;;;;;;;;23.50;55.09;99773.00;7883751;29;20000;-73
2022/06/11 18:13:42;;;;;;;;;;;;;;;23.24;57.36;99784.94;7872275;30;19930;-73
2022/06/11 18:17:44;;;;;;;;;;;;;;;23.07;56.84;99779.59;7865399;30;20395;-73
2022/06/11 18:26:06;;;;;;;;;;;;;;;22.90;57.87;99786.59;7881515;30;19973;-73
2022/06/11 18:30:08;;;;;;;;;;;;;;;22.86;58.41;99777.09;7865648;30;19973;-76
2022/06/11 18:34:11;;;;;;;;;;;;;;;22.75;58.87;99781.13;7871233;30;19930;-75
2022/06/11 18:38:12;;;;;;;;;;;;;;;22.58;59.81;99780.16;7867514;30;20328;-76
2022/06/11 18:42:15;;;;;;;;;;;;;;;22.41;60.10;99782.72;7867908;30;19934;-76
2022/06/11 18:46:16;;;;;;;;;;;;;;;22.21;60.29;99786.28;7872198;30;19969;-75
2022/06/11 18:50:20;;;;;;;;;;;;;;;22.05;60.36;99784.41;7857290;30;19973;-76
2022/06/11 18:54:22;;;;;;;;;;;;;;;21.81;61.00;99787.19;7863644;30;19937;-76
2022/06/11 18:58:24;;;;;;;;;;;;;;;21.64;61.57;99780.00;7863121;30;19930;-76
2022/06/11 19:02:25;;;;;;;;;;;;;;;21.52;61.95;99790.25;7860426;30;20451;-76
2022/06/11 19:06:27;;;;;;;;;;;;;;;21.38;62.28;99794.34;7879940;30;20032;-76
2022/06/11 19:10:28;;;;;;;;;;;;;;;21.25;62.31;99790.50;7866369;30;19969;-78
2022/06/11 19:14:30;;;;;;;;;;;;;;;21.13;62.88;99793.59;7845089;30;19969;-78
2022/06/11 19:18:32;;;;;;;;;;;;;;;20.98;63.84;99799.50;7861592;30;20411;-77
2022/06/11 19:22:33;;;;;;;;;;;;;;;20.85;63.85;99795.66;7868785;30;19930;-77
2022/06/11 19:26:35;;;;;;;;;;;;;;;20.66;64.35;99791.09;7881559;30;20548;-77
2022/06/11 19:30:37;;;;;;;;;;;;;;;20.52;65.10;99796.06;7871633;30;19969;-76
2022/06/11 19:34:39;;;;;;;;;;;;;;;20.36;66.21;99792.25;7865741;30;20049;-78
2022/06/11 19:38:42;;;;;;;;;;;;;;;20.18;67.63;99794.66;7864350;30;20020;-77
2022/06/11 19:42:47;;;;;;;;;;;;;;;20.05;68.45;99800.44;7859295;30;20098;-77
2022/06/11 19:46:49;;;;;;;;;;;;;;;19.85;68.94;99796.75;7868677;30;19956;-74
2022/06/11 19:50:51;;;;;;;;;;;;;;;19.69;69.77;99811.38;7864615;30;20529;-76
2022/06/11 19:54:53;;;;;;;;;;;;;;;19.58;70.28;99811.75;7870282;30;20028;-76
2022/06/11 19:58:55;;;;;;;;;;;;;;;19.44;70.86;99821.88;7858189;30;20041;-75
2022/06/11 20:02:57;;;;;;;;;;;;;;;19.32;70.99;99824.91;7867190;30;20688;-75
2022/06/11 20:06:58;;;;;;;;;;;;;;;19.18;70.93;99835.00;7849666;30;19929;-76
2022/06/11 20:11:00;;;;;;;;;;;;;;;19.08;70.31;99834.47;7853697;30;20248;-76
2022/06/11 20:15:02;;;;;;;;;;;;;;;19.00;70.72;99836.47;7853956;30;19956;-75
2022/06/11 20:19:06;;;;;;;;;;;;;;;18.88;72.19;99840.38;7855635;30;20308;-74
2022/06/11 20:23:11;;;;;;;;;;;;;;;18.77;72.82;99842.44;7858519;30;20509;-74
2022/06/11 20:27:12;;;;;;;;;;;;;;;18.66;72.74;99845.41;7858795;30;19930;-75
2022/06/11 20:31:14;;;;;;;;;;;;;;;18.53;73.17;99851.06;7862336;30;19936;-75
2022/06/11 20:35:15;;;;;;;;;;;;;;;18.42;73.28;99849.59;7863711;30;19944;-74
2022/06/11 20:39:17;;;;;;;;;;;;;;;18.35;73.80;99847.19;7865261;30;19934;-74
2022/06/11 20:46:03;;;;;;;;;;;;;;;18.22;74.85;99848.44;8415671;27;20349;-75
2022/06/11 20:50:05;;;;;;;;;;;;;;;18.16;74.96;99856.50;8401355;27;19928;-77
2022/06/11 20:54:07;;;;;;;;;;;;;;;18.05;75.98;99846.28;8434404;28;19967;-75
2022/06/11 20:58:08;;;;;;;;;;;;;;;17.98;76.32;99853.47;8427687;28;20031;-76
2022/06/11 21:02:12;;;;;;;;;;;;;;;17.89;76.17;99837.94;8434388;28;19928;-75
2022/06/11 21:06:13;;;;;;;;;;;;;;;17.77;76.21;99841.78;8435348;28;20622;-75
2022/06/11 21:10:15;;;;;;;;;;;;;;;17.66;76.06;99848.19;8428127;28;19942;-75
2022/06/11 21:14:37;;;;;;;;;;;;;;;17.56;76.37;99838.78;8449232;28;19935;-75
2022/06/11 21:18:38;;;;;;;;;;;;;;;17.47;76.81;99846.03;8432226;28;19928;-75
2022/06/11 21:22:40;;;;;;;;;;;;;;;17.42;77.03;99839.16;8428691;28;19938;-75
2022/06/11 21:26:42;;;;;;;;;;;;;;;17.32;77.14;99837.66;8436846;28;19934;-75
2022/06/11 21:30:45;;;;;;;;;;;;;;;17.29;77.04;99841.22;8451460;28;19928;-75
2022/06/11 21:34:46;;;;;;;;;;;;;;;17.25;77.37;99846.59;8434061;28;19974;-75
2022/06/11 21:38:50;;;;;;;;;;;;;;;17.17;77.29;99842.38;8428841;28;19979;-75
2022/06/11 21:42:54;;;;;;;;;;;;;;;17.08;77.68;99852.25;8431491;28;20323;-74
2022/06/11 21:46:57;;;;;;;;;;;;;;;17.01;78.65;99845.41;8431700;28;19971;-75
2022/06/11 21:50:58;;;;;;;;;;;;;;;16.95;80.02;99837.69;8426433;28;19938;-75
2022/06/11 21:55:00;;;;;;;;;;;;;;;16.87;80.63;99840.47;8423459;28;19928;-75